Time;durP1;ratioP1;P1;durP2;ratioP2;P2;SDS_P1;SDS_P2;PMS_P1;PMS_P2;Temp;Humidity;BMP_temperature;BMP_pressure;BME280_temperature;BME280_humidity;BME280_pressure;Samples;Min_cycle;Max_cycle;Signal;HPM_P1;HPM_P2
2022/01/05 00:00:00;;;;;;;4.27;2.10;;;3.70;99.90;;;;;;5023199;28;20242;-77
2022/01/05 00:02:27;;;;;;;7.03;2.07;;;3.70;99.90;;;;;;5037365;28;20665;-77
2022/01/05 00:04:55;;;;;;;5.20;2.27;;;3.70;99.90;;;;;;5029923;28;20757;-77
2022/01/05 00:07:22;;;;;;;10.37;2.00;;;2.90;99.90;;;;;;5033002;28;20204;-78
2022/01/05 00:09:49;;;;;;;6.97;2.30;;;3.70;99.90;;;;;;5025987;28;20240;-77
2022/01/05 00:12:16;;;;;;;6.93;1.93;;;3.70;99.90;;;;;;5027254;28;21064;-78
2022/01/05 00:14:42;;;;;;;7.17;1.90;;;3.50;99.90;;;;;;5022781;28;20411;-78
2022/01/05 00:17:09;;;;;;;7.53;2.00;;;3.70;99.90;;;;;;5014028;28;20207;-78
2022/01/05 00:19:36;;;;;;;11.00;2.20;;;3.60;99.90;;;;;;5033417;28;20602;-77
2022/01/05 00:22:04;;;;;;;6.33;1.70;;;3.30;99.90;;;;;;5030679;28;20318;-77
2022/01/05 00:24:31;;;;;;;8.57;2.07;;;3.50;99.90;;;;;;5029988;28;20303;-77
2022/01/05 00:26:58;;;;;;;4.73;1.73;;;;;;;;;;5037944;28;20198;-78
2022/01/05 00:29:26;;;;;;;4.30;1.67;;;3.40;99.90;;;;;;5027547;28;20245;-77
2022/01/05 00:31:53;;;;;;;6.60;2.03;;;3.30;99.90;;;;;;5003817;28;20285;-78
2022/01/05 00:34:21;;;;;;;8.63;1.90;;;3.20;99.90;;;;;;5013564;28;20215;-77
2022/01/05 00:36:47;;;;;;;6.47;2.20;;;3.10;99.90;;;;;;5037548;28;20581;-77
2022/01/05 00:39:16;;;;;;;6.33;1.83;;;3.10;99.90;;;;;;5031517;28;20260;-77
2022/01/05 00:41:44;;;;;;;7.77;2.30;;;3.10;99.90;;;;;;5029776;28;20233;-77
2022/01/05 00:44:11;;;;;;;4.40;2.00;;;3.00;99.90;;;;;;5045612;28;20210;-77
2022/01/05 00:46:37;;;;;;;3.97;1.67;;;3.00;99.90;;;;;;5033623;28;20227;-77
2022/01/05 00:49:04;;;;;;;9.07;2.03;;;2.90;99.90;;;;;;5031563;28;20690;-78
2022/01/05 00:51:31;;;;;;;9.80;2.60;;;2.90;99.90;;;;;;5028284;28;20204;-78
2022/01/05 00:53:58;;;;;;;8.17;2.13;;;2.80;99.90;;;;;;5028502;28;20243;-77
2022/01/05 00:56:25;;;;;;;10.43;2.37;;;2.80;99.90;;;;;;5032847;28;20694;-77
2022/01/05 00:58:53;;;;;;;8.30;2.30;;;2.70;99.90;;;;;;5035943;28;20203;-77
2022/01/05 01:01:19;;;;;;;7.93;2.37;;;2.70;99.90;;;;;;5033403;28;20257;-77
2022/01/05 01:03:47;;;;;;;10.13;2.10;;;2.60;99.90;;;;;;5032709;28;20207;-78
2022/01/05 01:06:15;;;;;;;9.03;2.17;;;2.60;99.90;;;;;;5030352;28;20285;-77
2022/01/05 01:08:42;;;;;;;9.03;2.57;;;2.80;99.90;;;;;;5039486;28;20203;-78
2022/01/05 01:11:09;;;;;;;14.90;2.73;;;2.90;99.90;;;;;;5033043;28;20210;-78
2022/01/05 01:13:36;;;;;;;12.40;2.43;;;2.50;99.90;;;;;;5001694;28;20211;-77
2022/01/05 01:16:06;;;;;;;5.40;2.20;;;2.60;99.90;;;;;;5027750;28;20240;-77
2022/01/05 01:18:35;;;;;;;8.97;1.97;;;2.50;99.90;;;;;;5022040;28;20270;-77
2022/01/05 01:21:03;;;;;;;7.53;2.13;;;2.50;99.90;;;;;;5032237;28;20248;-77
2022/01/05 01:23:32;;;;;;;9.93;2.67;;;2.50;99.90;;;;;;5007044;28;20669;-77
2022/01/05 01:26:00;;;;;;;8.57;2.37;;;2.50;99.90;;;;;;5031914;28;20267;-76
2022/01/05 01:28:27;;;;;;;8.30;2.57;;;2.50;99.90;;;;;;5036958;28;20242;-78
2022/01/05 01:30:53;;;;;;;5.80;2.27;;;2.50;99.90;;;;;;5039615;28;20749;-78
2022/01/05 01:33:21;;;;;;;6.73;2.10;;;2.50;99.90;;;;;;5031975;28;20225;-79
2022/01/05 01:35:48;;;;;;;6.37;2.30;;;3.00;99.90;;;;;;5033033;28;20290;-79
2022/01/05 01:38:18;;;;;;;8.77;2.43;;;2.50;99.90;;;;;;5048435;28;20210;-77
2022/01/05 01:40:45;;;;;;;14.40;2.53;;;2.50;99.90;;;;;;5021825;28;20231;-78
2022/01/05 01:43:12;;;;;;;12.00;2.70;;;2.10;99.90;;;;;;5030310;28;20216;-77
2022/01/05 01:45:39;;;;;;;18.13;3.30;;;2.40;99.90;;;;;;5030111;28;20321;-78
2022/01/05 01:48:06;;;;;;;7.03;2.30;;;2.20;99.90;;;;;;5021407;28;20654;-78
2022/01/05 01:50:33;;;;;;;6.80;2.23;;;2.20;99.90;;;;;;5047320;28;20218;-79
2022/01/05 01:53:01;;;;;;;6.77;2.80;;;2.80;99.90;;;;;;5031937;28;20328;-77
2022/01/05 01:55:28;;;;;;;8.37;2.70;;;2.50;99.90;;;;;;5011190;28;20297;-77
2022/01/05 01:57:55;;;;;;;8.80;2.30;;;2.60;99.90;;;;;;5031806;28;20230;-78
2022/01/05 02:00:22;;;;;;;11.07;2.93;;;2.40;99.90;;;;;;5026199;28;20284;-79
2022/01/05 02:02:50;;;;;;;6.27;2.50;;;2.50;99.90;;;;;;5028430;28;20266;-78
2022/01/05 02:05:17;;;;;;;4.57;2.20;;;2.60;99.90;;;;;;5023972;28;20279;-79
2022/01/05 02:07:44;;;;;;;8.63;2.30;;;2.60;99.90;;;;;;5032370;28;20681;-78
2022/01/05 02:10:12;;;;;;;10.03;2.67;;;2.60;99.90;;;;;;5023983;28;20301;-77
2022/01/05 02:12:39;;;;;;;7.60;2.73;;;2.70;99.90;;;;;;5021416;28;20256;-77
2022/01/05 02:15:06;;;;;;;8.60;2.73;;;2.50;99.90;;;;;;5018077;28;20690;-78
2022/01/05 02:17:57;;;;;;;11.03;2.47;;;2.50;99.90;;;;;;4999495;28;20234;-77
2022/01/05 02:20:27;;;;;;;8.80;2.47;;;2.50;99.90;;;;;;5026856;28;20287;-78
2022/01/05 02:22:55;;;;;;;6.07;2.37;;;2.50;99.90;;;;;;5020389;28;20240;-78
2022/01/05 02:25:23;;;;;;;11.33;2.80;;;2.50;99.90;;;;;;5028796;28;20634;-76
2022/01/05 02:27:52;;;;;;;11.07;2.50;;;2.50;99.90;;;;;;5026419;28;20909;-77
2022/01/05 02:30:25;;;;;;;9.13;3.90;;;2.60;99.90;;;;;;5024844;28;20305;-78
2022/01/05 02:32:53;;;;;;;16.20;3.30;;;2.50;99.90;;;;;;5022853;28;20215;-78
2022/01/05 02:35:21;;;;;;;8.77;2.53;;;2.50;99.90;;;;;;5024193;28;20748;-78
2022/01/05 02:37:50;;;;;;;6.97;2.47;;;2.50;99.90;;;;;;5027014;28;20253;-79
2022/01/05 02:40:19;;;;;;;6.20;2.27;;;2.00;99.90;;;;;;5026239;28;20236;-79
2022/01/05 02:42:50;;;;;;;10.30;2.53;;;2.50;99.90;;;;;;5001721;28;20313;-78
2022/01/05 02:45:17;;;;;;;11.53;3.13;;;2.50;99.90;;;;;;5023237;28;20661;-76
2022/01/05 02:47:44;;;;;;;16.43;2.97;;;2.20;99.90;;;;;;5026089;28;20295;-77
2022/01/05 02:50:12;;;;;;;6.00;2.70;;;2.50;99.90;;;;;;5021236;28;20247;-77
2022/01/05 02:52:39;;;;;;;7.93;3.03;;;2.60;99.90;;;;;;5022580;28;20265;-78
2022/01/05 02:55:09;;;;;;;10.53;2.93;;;2.50;99.90;;;;;;5017813;28;20722;-78
2022/01/05 02:57:36;;;;;;;8.37;2.53;;;2.50;99.90;;;;;;5024213;28;20206;-77
2022/01/05 03:00:08;;;;;;;13.33;3.30;;;2.50;99.90;;;;;;5033999;28;20933;-78
2022/01/05 03:02:35;;;;;;;10.17;2.77;;;2.40;99.90;;;;;;5031358;28;20232;-77
2022/01/05 03:05:06;;;;;;;12.30;3.17;;;2.30;99.90;;;;;;5032382;28;20209;-77
2022/01/05 03:07:38;;;;;;;11.67;3.07;;;2.70;99.90;;;;;;5033442;28;20264;-76
2022/01/05 03:10:10;;;;;;;13.13;3.27;;;2.10;99.90;;;;;;5018422;28;20206;-78
2022/01/05 03:12:40;;;;;;;17.93;3.47;;;2.70;99.90;;;;;;5015268;28;20227;-77
2022/01/05 03:15:08;;;;;;;7.47;2.27;;;2.90;99.90;;;;;;5025705;28;20293;-78
2022/01/05 03:17:35;;;;;;;11.77;2.90;;;2.50;99.90;;;;;;5029930;28;20238;-77
2022/01/05 03:20:02;;;;;;;15.57;3.43;;;3.40;99.90;;;;;;5034038;28;20276;-78
2022/01/05 03:22:30;;;;;;;8.20;2.53;;;2.50;99.90;;;;;;5033588;28;20238;-77
2022/01/05 03:25:00;;;;;;;11.83;3.00;;;2.50;99.90;;;;;;5038807;28;20701;-77
2022/01/05 03:27:26;;;;;;;12.97;2.57;;;2.60;99.90;;;;;;5033491;28;20225;-78
2022/01/05 03:29:53;;;;;;;7.77;2.67;;;2.50;99.90;;;;;;5051634;28;20280;-77
2022/01/05 03:32:21;;;;;;;8.27;2.87;;;2.40;99.90;;;;;;5023057;28;20206;-77
2022/01/05 03:34:51;;;;;;;12.00;3.07;;;2.30;99.90;;;;;;5010509;28;20226;-77
2022/01/05 03:37:18;;;;;;;14.13;3.50;;;2.20;99.90;;;;;;5029807;28;20274;-77
2022/01/05 03:39:45;;;;;;;16.73;3.33;;;2.40;99.90;;;;;;5031657;28;20282;-77
2022/01/05 03:42:12;;;;;;;10.60;2.70;;;2.00;99.90;;;;;;5038189;28;20706;-76
2022/01/05 03:44:38;;;;;;;12.13;3.50;;;2.40;99.90;;;;;;5032807;28;20239;-78
2022/01/05 03:47:05;;;;;;;9.17;3.03;;;2.40;99.90;;;;;;5050099;28;20297;-77
2022/01/05 03:49:32;;;;;;;12.87;3.03;;;2.40;99.90;;;;;;5038088;28;20272;-77
2022/01/05 03:52:00;;;;;;;12.63;2.67;;;2.40;99.90;;;;;;5026645;28;20375;-78
2022/01/05 03:54:27;;;;;;;9.43;2.73;;;2.40;99.90;;;;;;5003074;28;20206;-77
2022/01/05 03:56:54;;;;;;;12.00;3.07;;;2.50;99.90;;;;;;5042017;28;20290;-77
2022/01/05 03:59:21;;;;;;;14.03;2.73;;;2.50;99.90;;;;;;5034149;28;20205;-77
2022/01/05 04:01:48;;;;;;;12.73;2.47;;;2.60;99.90;;;;;;5030175;28;20234;-78
2022/01/05 04:04:15;;;;;;;12.07;2.67;;;2.50;99.90;;;;;;5039658;28;20218;-77
2022/01/05 04:06:41;;;;;;;10.50;3.00;;;2.70;99.90;;;;;;5012386;28;20269;-77
2022/01/05 04:09:10;;;;;;;9.03;2.90;;;2.80;99.90;;;;;;5031276;28;20654;-77
2022/01/05 04:11:37;;;;;;;8.93;2.93;;;2.60;99.90;;;;;;5009936;28;20609;-77
2022/01/05 04:14:06;;;;;;;11.23;2.93;;;2.70;99.90;;;;;;5039751;28;20250;-77
2022/01/05 04:16:33;;;;;;;16.20;3.80;;;2.70;99.90;;;;;;5040308;28;20210;-77
2022/01/05 04:19:02;;;;;;;14.17;2.90;;;2.40;99.90;;;;;;5016069;28;20316;-78
2022/01/05 04:21:31;;;;;;;11.93;2.63;;;2.90;99.90;;;;;;5028376;28;20723;-77
2022/01/05 04:23:58;;;;;;;9.43;2.70;;;2.80;99.90;;;;;;5039723;28;20205;-77
2022/01/05 04:26:25;;;;;;;12.97;2.73;;;2.80;99.90;;;;;;5033582;28;20251;-77
2022/01/05 04:28:53;;;;;;;8.73;2.90;;;2.90;99.90;;;;;;5039922;28;20207;-77
2022/01/05 04:31:20;;;;;;;10.73;2.60;;;2.90;99.90;;;;;;5030860;28;20283;-78
2022/01/05 04:33:47;;;;;;;7.73;2.87;;;2.90;99.90;;;;;;5034443;28;20207;-77
2022/01/05 04:36:34;;;;;;;16.30;2.90;;;2.90;99.90;;;;;;5028266;28;20211;-77
2022/01/05 04:39:00;;;;;;;14.47;2.40;;;2.80;99.90;;;;;;5035575;28;20211;-78
2022/01/05 04:41:27;;;;;;;10.03;2.60;;;2.90;99.90;;;;;;5033094;28;20227;-78
2022/01/05 04:43:54;;;;;;;11.77;2.63;;;2.80;99.90;;;;;;5022070;28;20302;-78
2022/01/05 04:46:21;;;;;;;11.60;2.77;;;3.00;99.90;;;;;;5031484;28;20262;-78
2022/01/05 04:48:48;;;;;;;15.53;2.70;;;2.90;99.90;;;;;;5028970;28;20269;-77
2022/01/05 04:51:16;;;;;;;21.20;3.37;;;2.90;99.90;;;;;;5038348;28;20757;-77
2022/01/05 04:53:44;;;;;;;6.77;2.50;;;2.90;99.90;;;;;;5013247;28;20205;-77
2022/01/05 04:56:11;;;;;;;12.57;2.50;;;2.90;99.90;;;;;;5011384;28;20403;-77
2022/01/05 04:58:38;;;;;;;12.27;3.03;;;2.90;99.90;;;;;;5028527;28;20304;-77
2022/01/05 05:01:08;;;;;;;15.03;3.03;;;3.30;99.90;;;;;;5035547;28;20265;-78
2022/01/05 05:03:35;;;;;;;13.37;3.20;;;3.00;99.90;;;;;;5041398;28;20219;-77
2022/01/05 05:06:02;;;;;;;10.80;3.00;;;3.10;99.90;;;;;;5036927;28;20274;-77
2022/01/05 05:08:31;;;;;;;20.07;3.43;;;3.10;99.90;;;;;;5034955;28;20690;-77
2022/01/05 05:10:58;;;;;;;12.83;2.70;;;3.10;99.90;;;;;;5042222;28;20233;-78
2022/01/05 05:13:26;;;;;;;13.57;2.90;;;3.10;99.90;;;;;;5022265;28;20215;-77
2022/01/05 05:15:53;;;;;;;18.73;3.00;;;3.10;99.90;;;;;;5033306;28;20300;-77
2022/01/05 05:18:20;;;;;;;15.97;3.30;;;3.10;99.90;;;;;;5022282;28;20216;-78
2022/01/05 05:20:47;;;;;;;15.20;3.30;;;3.20;99.90;;;;;;5037155;28;20325;-77
2022/01/05 05:23:16;;;;;;;15.63;3.30;;;3.30;99.90;;;;;;5027270;28;20215;-77
2022/01/05 05:25:45;;;;;;;15.27;2.83;;;3.40;99.90;;;;;;5037270;28;20238;-78
2022/01/05 05:28:20;;;;;;;14.80;3.00;;;3.30;99.90;;;;;;5035944;28;20632;-78
2022/01/05 05:30:47;;;;;;;11.93;4.00;;;4.10;99.90;;;;;;5033125;28;20208;-78
2022/01/05 05:33:14;;;;;;;11.00;3.10;;;3.70;99.90;;;;;;5015473;28;20932;-78
2022/01/05 05:35:41;;;;;;;10.67;3.27;;;3.30;99.90;;;;;;5020202;28;20746;-78
2022/01/05 05:38:10;;;;;;;14.27;3.30;;;3.30;99.90;;;;;;5028266;28;20295;-78
2022/01/05 05:40:39;;;;;;;12.63;3.27;;;3.40;99.90;;;;;;5023070;28;20328;-79
2022/01/05 05:43:06;;;;;;;14.47;2.90;;;3.70;99.90;;;;;;5028309;28;20241;-77
2022/01/05 05:45:33;;;;;;;15.60;3.57;;;2.70;99.90;;;;;;5029178;28;21032;-76
2022/01/05 05:48:00;;;;;;;14.90;2.77;;;3.40;99.90;;;;;;5030482;28;20211;-77
2022/01/05 05:50:27;;;;;;;18.73;3.60;;;3.40;99.90;;;;;;5028861;28;20220;-78
2022/01/05 05:52:54;;;;;;;14.30;4.40;;;3.40;99.90;;;;;;5034044;28;20219;-77
2022/01/05 05:55:21;;;;;;;12.57;3.30;;;3.40;99.90;;;;;;5021423;28;20303;-77
2022/01/05 05:57:50;;;;;;;13.63;3.27;;;3.40;99.90;;;;;;5031685;28;20215;-77
2022/01/05 06:00:17;;;;;;;16.17;3.30;;;4.30;99.90;;;;;;5029523;28;20237;-78
2022/01/05 06:02:44;;;;;;;13.93;3.80;;;3.30;99.90;;;;;;5032006;28;20243;-78
2022/01/05 06:05:14;;;;;;;11.87;2.87;;;3.40;99.90;;;;;;5041898;28;20230;-77
2022/01/05 06:07:41;;;;;;;13.27;3.53;;;2.90;99.90;;;;;;5028722;28;20904;-78
2022/01/05 06:10:09;;;;;;;13.83;3.50;;;3.50;99.90;;;;;;5029839;28;20236;-78
2022/01/05 06:12:35;;;;;;;18.13;3.60;;;3.50;99.90;;;;;;5029969;28;20310;-77
2022/01/05 06:15:02;;;;;;;14.63;3.43;;;3.50;99.90;;;;;;5025421;28;20200;-77
2022/01/05 06:17:32;;;;;;;16.67;4.00;;;3.50;99.90;;;;;;5012957;28;20320;-77
2022/01/05 06:20:04;;;;;;;15.50;3.50;;;3.50;99.90;;;;;;5046105;28;20225;-77
2022/01/05 06:22:32;;;;;;;17.83;3.80;;;3.50;99.90;;;;;;5028841;28;20538;-78
2022/01/05 06:24:59;;;;;;;13.43;3.27;;;3.50;99.90;;;;;;5031829;28;20201;-78
2022/01/05 06:27:25;;;;;;;12.37;3.80;;;3.50;99.90;;;;;;5023487;28;20293;-77
2022/01/05 06:29:52;;;;;;;14.40;3.50;;;3.60;99.90;;;;;;5038368;28;20289;-77
2022/01/05 06:32:19;;;;;;;16.67;4.80;;;3.70;99.90;;;;;;5035514;28;20329;-77
2022/01/05 06:34:46;;;;;;;13.30;3.43;;;3.70;99.90;;;;;;5030659;28;20363;-77
2022/01/05 06:37:15;;;;;;;11.53;4.47;;;3.60;99.90;;;;;;5019525;28;20217;-78
2022/01/05 06:39:42;;;;;;;17.43;3.83;;;3.60;99.90;;;;;;5043691;28;20200;-76
2022/01/05 06:42:11;;;;;;;14.27;3.53;;;3.60;99.90;;;;;;5029714;28;20243;-78
2022/01/05 06:44:40;;;;;;;15.33;3.50;;;3.70;99.90;;;;;;5029129;28;20213;-78
2022/01/05 06:47:07;;;;;;;10.10;3.00;;;3.70;99.90;;;;;;5029242;28;20688;-78
2022/01/05 06:49:34;;;;;;;17.30;3.53;;;3.70;99.90;;;;;;5029400;28;20287;-78
2022/01/05 06:52:01;;;;;;;13.67;3.13;;;4.40;99.90;;;;;;5030723;28;20217;-78
2022/01/05 06:54:29;;;;;;;16.60;3.83;;;3.60;99.90;;;;;;5019176;28;20271;-79
2022/01/05 06:56:56;;;;;;;13.90;3.70;;;3.80;99.90;;;;;;5027073;28;20273;-78
2022/01/05 06:59:25;;;;;;;13.83;3.87;;;3.80;99.90;;;;;;5026576;28;20209;-78
2022/01/05 07:01:52;;;;;;;12.13;3.50;;;3.90;99.90;;;;;;5031500;28;20602;-77
2022/01/05 07:04:19;;;;;;;15.63;4.03;;;3.90;99.90;;;;;;5020137;28;20226;-77
2022/01/05 07:06:46;;;;;;;10.37;3.17;;;3.90;99.90;;;;;;5050693;28;20244;-78
2022/01/05 07:09:12;;;;;;;14.87;3.77;;;4.00;99.90;;;;;;5040961;28;20202;-79
2022/01/05 07:11:40;;;;;;;11.73;3.47;;;4.00;99.90;;;;;;5032935;28;20750;-78
2022/01/05 07:14:07;;;;;;;15.17;3.23;;;4.10;99.90;;;;;;5028646;28;20263;-77
2022/01/05 07:16:35;;;;;;;13.47;3.93;;;4.20;99.90;;;;;;5026487;28;20690;-78
2022/01/05 07:19:02;;;;;;;13.70;4.07;;;4.10;99.90;;;;;;5027939;28;20623;-78
2022/01/05 07:21:33;;;;;;;25.33;4.30;;;4.20;99.90;;;;;;5027564;28;20280;-79
2022/01/05 07:24:01;;;;;;;15.43;3.90;;;4.20;99.90;;;;;;5037070;28;20205;-77
2022/01/05 07:26:27;;;;;;;17.67;4.17;;;4.30;99.90;;;;;;5012772;28;20209;-77
2022/01/05 07:28:55;;;;;;;15.27;4.47;;;4.30;99.90;;;;;;5033685;28;20257;-79
2022/01/05 07:31:22;;;;;;;16.87;4.47;;;4.20;99.90;;;;;;5037715;28;20225;-78
2022/01/05 07:33:49;;;;;;;16.70;3.63;;;4.20;99.90;;;;;;5026458;28;20235;-78
2022/01/05 07:36:16;;;;;;;15.60;4.00;;;4.20;99.90;;;;;;5036910;28;20592;-79
2022/01/05 07:38:43;;;;;;;16.63;4.20;;;4.20;99.90;;;;;;5030128;28;20239;-79
2022/01/05 07:41:10;;;;;;;14.37;3.57;;;4.20;99.90;;;;;;5032073;28;20243;-78
2022/01/05 07:43:37;;;;;;;14.50;4.00;;;4.10;99.90;;;;;;5029081;28;20205;-78
2022/01/05 07:46:06;;;;;;;20.17;4.60;;;4.10;99.90;;;;;;5036395;28;20199;-79
2022/01/05 07:48:34;;;;;;;16.43;3.70;;;4.20;99.90;;;;;;5030777;28;20228;-79
2022/01/05 07:51:01;;;;;;;17.90;4.57;;;4.10;99.90;;;;;;5031769;28;20572;-79
2022/01/05 07:53:28;;;;;;;18.53;3.77;;;4.10;99.90;;;;;;5029627;28;20268;-81
2022/01/05 07:55:55;;;;;;;17.07;4.40;;;4.10;99.90;;;;;;5022724;28;20271;-79
2022/01/05 07:58:23;;;;;;;17.67;4.10;;;4.10;99.90;;;;;;5040253;28;20296;-78
2022/01/05 08:00:51;;;;;;;25.00;4.67;;;4.10;99.90;;;;;;5036850;28;20301;-78
2022/01/05 08:03:18;;;;;;;15.17;4.27;;;4.10;99.90;;;;;;5030151;28;20243;-80
2022/01/05 08:06:05;;;;;;;13.53;3.93;;;4.10;99.90;;;;;;5037978;28;20217;-80
2022/01/05 08:08:32;;;;;;;15.87;4.50;;;4.10;99.90;;;;;;5041976;28;20215;-80
2022/01/05 08:10:59;;;;;;;17.53;4.20;;;4.10;99.90;;;;;;5027913;28;20209;-80
2022/01/05 08:13:26;;;;;;;16.37;4.23;;;4.10;99.90;;;;;;5004241;28;20247;-79
2022/01/05 08:15:53;;;;;;;10.53;3.57;;;4.10;99.90;;;;;;5044711;28;20251;-80
2022/01/05 08:18:22;;;;;;;14.47;4.27;;;4.20;99.90;;;;;;5038396;28;20210;-81
2022/01/05 08:20:49;;;;;;;22.00;4.40;;;4.20;99.90;;;;;;5032119;28;20540;-81
2022/01/05 08:23:21;;;;;;;13.33;3.60;;;4.20;99.90;;;;;;5025328;28;20236;-81
2022/01/05 08:25:49;;;;;;;11.87;3.67;;;4.30;99.90;;;;;;5027700;28;20296;-80
2022/01/05 08:28:17;;;;;;;18.20;4.00;;;4.30;99.90;;;;;;5027565;28;20279;-81
2022/01/05 08:30:45;;;;;;;15.30;3.93;;;4.30;99.90;;;;;;5038852;28;20236;-81
2022/01/05 08:33:16;;;;;;;15.47;3.80;;;4.30;99.90;;;;;;5036943;28;20218;-80
2022/01/05 08:35:44;;;;;;;24.83;3.90;;;4.30;99.90;;;;;;5033459;28;20568;-81
2022/01/05 08:38:12;;;;;;;16.67;4.10;;;4.40;99.90;;;;;;5035453;28;20276;-81
2022/01/05 08:40:39;;;;;;;18.37;4.47;;;4.50;99.90;;;;;;5029111;28;20236;-80
2022/01/05 08:43:07;;;;;;;19.07;3.77;;;4.50;99.90;;;;;;5020412;28;20243;-80
2022/01/05 08:45:34;;;;;;;13.07;4.67;;;4.50;99.90;;;;;;5014436;28;20210;-80
2022/01/05 08:48:02;;;;;;;16.10;4.30;;;4.50;99.90;;;;;;5040231;28;20297;-80
2022/01/05 08:50:31;;;;;;;18.97;3.97;;;4.50;99.90;;;;;;5033077;28;20238;-81
2022/01/05 08:53:00;;;;;;;15.83;3.90;;;4.50;99.90;;;;;;5037186;28;20288;-80
2022/01/05 08:55:30;;;;;;;18.47;4.90;;;4.50;99.90;;;;;;5002350;28;20250;-81
2022/01/05 08:58:05;;;;;;;10.27;4.43;;;4.60;99.90;;;;;;4996912;28;20291;-82
2022/01/05 09:00:33;;;;;;;17.70;3.93;;;4.60;99.90;;;;;;5028698;28;20248;-81
2022/01/05 09:03:00;;;;;;;18.50;4.43;;;4.60;99.90;;;;;;5026986;28;20535;-81
2022/01/05 09:05:28;;;;;;;19.77;4.40;;;4.60;99.90;;;;;;5038744;28;20221;-80
2022/01/05 09:07:54;;;;;;;15.70;4.23;;;4.60;99.90;;;;;;5032209;28;20233;-81
2022/01/05 09:10:22;;;;;;;13.77;3.50;;;4.60;99.90;;;;;;5032291;28;20206;-82
2022/01/05 09:12:49;;;;;;;16.20;3.60;;;5.20;99.90;;;;;;5015544;28;20291;-80
2022/01/05 09:15:15;;;;;;;13.53;3.63;;;5.00;99.90;;;;;;5029115;28;20242;-81
2022/01/05 09:17:44;;;;;;;11.47;3.80;;;4.70;99.90;;;;;;5039472;28;20208;-81
2022/01/05 09:20:11;;;;;;;20.07;4.73;;;4.80;99.90;;;;;;5035910;28;20223;-80
2022/01/05 09:22:41;;;;;;;15.43;4.00;;;4.90;99.90;;;;;;5003861;28;20260;-81
2022/01/05 09:25:11;;;;;;;11.97;3.17;;;4.80;99.90;;;;;;5030632;28;20534;-82
2022/01/05 09:27:38;;;;;;;25.83;5.00;;;4.80;99.90;;;;;;5047014;28;20532;-81
2022/01/05 09:30:09;;;;;;;18.43;4.07;;;4.80;99.90;;;;;;5031658;28;20197;-80
2022/01/05 09:32:37;;;;;;;20.60;3.97;;;4.90;99.90;;;;;;5023640;28;20242;-81
2022/01/05 09:35:09;;;;;;;19.00;4.30;;;5.00;99.90;;;;;;5029913;28;20267;-80
2022/01/05 09:37:40;;;;;;;15.50;3.83;;;5.00;99.90;;;;;;5038964;28;20245;-82
2022/01/05 09:42:54;;;;;;;20.57;3.97;;;5.10;99.90;;;;;;5034592;28;20234;-82
2022/01/05 09:45:23;;;;;;;17.47;3.23;;;5.20;99.90;;;;;;5057597;28;20209;-82
2022/01/05 09:48:10;;;;;;;21.17;3.67;;;5.10;99.90;;;;;;5035238;28;20205;-81
2022/01/05 09:50:45;;;;;;;16.70;3.30;;;5.10;99.90;;;;;;5030381;28;20249;-81
2022/01/05 09:53:14;;;;;;;15.27;3.00;;;5.10;99.90;;;;;;5002765;28;20212;-80
2022/01/05 09:55:41;;;;;;;18.83;3.70;;;5.50;99.90;;;;;;5034536;28;20273;-81
2022/01/05 09:58:08;;;;;;;15.63;3.40;;;6.40;99.90;;;;;;5038124;28;20293;-81
2022/01/05 10:00:35;;;;;;;12.53;3.00;;;5.10;99.90;;;;;;5014286;28;20260;-81
2022/01/05 10:03:02;;;;;;;13.90;2.70;;;5.20;99.90;;;;;;5032831;28;20387;-80
2022/01/05 10:05:31;;;;;;;19.47;3.70;;;5.20;99.90;;;;;;5022711;28;20254;-80
2022/01/05 10:07:58;;;;;;;18.47;4.40;;;5.20;99.90;;;;;;5031899;28;20328;-81
2022/01/05 10:10:24;;;;;;;13.73;3.10;;;5.20;99.90;;;;;;5031936;28;20241;-81
2022/01/05 10:12:51;;;;;;;13.50;3.60;;;5.20;99.90;;;;;;5003243;28;20224;-80
2022/01/05 10:15:19;;;;;;;14.07;3.50;;;5.30;99.90;;;;;;5038917;28;20229;-82
2022/01/05 10:17:46;;;;;;;12.17;3.77;;;5.40;99.90;;;;;;5030833;28;20219;-81
2022/01/05 10:20:13;;;;;;;16.90;3.77;;;;;;;;;;5034617;28;20224;-80
2022/01/05 10:22:45;;;;;;;12.33;2.87;;;5.50;99.90;;;;;;5033000;28;20237;-80
2022/01/05 10:25:22;;;;;;;15.27;3.43;;;5.50;99.90;;;;;;5031228;28;20617;-81
2022/01/05 10:28:08;;;;;;;18.47;3.73;;;5.60;99.90;;;;;;5025670;28;20236;-80
2022/01/05 10:30:38;;;;;;;19.93;3.20;;;5.60;99.90;;;;;;5033964;28;20248;-81
2022/01/05 10:33:05;;;;;;;16.50;3.43;;;5.60;99.90;;;;;;5031555;28;20294;-81
2022/01/05 10:35:33;;;;;;;29.10;3.73;;;5.60;99.90;;;;;;5043048;28;20604;-83
2022/01/05 10:38:09;;;;;;;24.10;3.60;;;5.70;99.90;;;;;;5031301;28;20213;-81
2022/01/05 10:40:38;;;;;;;26.10;3.83;;;5.70;99.90;;;;;;5034509;28;20212;-79
2022/01/05 10:43:12;;;;;;;17.23;3.23;;;5.80;99.90;;;;;;5020392;28;20234;-82
2022/01/05 10:45:40;;;;;;;27.40;4.03;;;5.80;99.90;;;;;;5001561;28;20202;-81
2022/01/05 10:48:12;;;;;;;24.50;3.80;;;;;;;;;;5040248;28;20285;-81
2022/01/05 10:50:39;;;;;;;18.10;3.83;;;5.90;99.90;;;;;;5034347;28;20232;-81
2022/01/05 10:53:08;;;;;;;22.17;4.07;;;6.00;99.90;;;;;;5043190;28;20364;-81
2022/01/05 10:55:42;;;;;;;24.63;4.47;;;6.00;99.90;;;;;;5014787;28;20234;-81
2022/01/05 10:58:15;;;;;;;29.10;4.63;;;6.00;99.90;;;;;;5039258;28;20308;-80
2022/01/05 11:00:54;;;;;;;24.17;4.00;;;6.10;99.90;;;;;;5024490;28;20212;-81
2022/01/05 11:03:40;;;;;;;20.10;3.43;;;6.10;99.90;;;;;;5035651;28;20225;-83
2022/01/05 11:06:11;;;;;;;18.17;3.20;;;6.20;99.90;;;;;;5041516;28;20221;-81
2022/01/05 11:09:00;;;;;;;23.13;4.93;;;6.20;99.90;;;;;;5034899;28;20250;-81
2022/01/05 11:11:30;;;;;;;19.97;3.60;;;6.30;99.90;;;;;;5005638;28;20272;-82
2022/01/05 11:13:58;;;;;;;19.07;2.73;;;6.30;99.90;;;;;;5026625;28;20215;-82
2022/01/05 11:16:29;;;;;;;34.00;3.50;;;6.20;99.90;;;;;;5035958;28;20217;-81
2022/01/05 11:19:18;;;;;;;20.70;4.07;;;6.20;99.90;;;;;;5042501;28;20225;-81
2022/01/05 11:22:01;;;;;;;12.57;3.00;;;6.30;99.90;;;;;;5039762;28;20781;-81
2022/01/05 11:24:34;;;;;;;8.53;2.23;;;6.20;99.90;;;;;;5039906;28;20211;-81
2022/01/05 11:27:05;;;;;;;17.80;3.13;;;6.20;99.90;;;;;;5031942;28;20211;-81
2022/01/05 11:29:33;;;;;;;24.10;3.47;;;6.20;99.90;;;;;;5036370;28;20245;-80
2022/01/05 11:32:06;;;;;;;22.43;3.60;;;6.30;99.90;;;;;;5034011;28;20197;-81
2022/01/05 11:34:34;;;;;;;30.47;4.57;;;6.30;99.90;;;;;;5035556;28;20753;-80
2022/01/05 11:37:08;;;;;;;26.50;4.73;;;6.40;99.90;;;;;;5043276;28;20245;-80
2022/01/05 11:39:40;;;;;;;25.30;4.00;;;6.50;99.90;;;;;;5037155;28;20224;-80
2022/01/05 11:42:10;;;;;;;24.87;3.57;;;6.60;99.90;;;;;;5032882;28;20270;-82
2022/01/05 11:44:49;;;;;;;23.70;3.93;;;6.60;99.90;;;;;;5035503;28;20225;-80
2022/01/05 11:47:25;;;;;;;20.87;3.73;;;6.80;99.90;;;;;;5029083;28;20212;-81
2022/01/05 11:49:55;;;;;;;22.13;3.43;;;6.70;99.90;;;;;;5034329;28;20267;-81
2022/01/05 11:52:55;;;;;;;17.13;3.23;;;6.80;99.90;;;;;;5023939;28;20575;-80
2022/01/05 11:55:22;;;;;;;24.60;4.70;;;6.70;99.90;;;;;;4999922;28;20233;-81
2022/01/05 11:58:25;;;;;;;17.70;4.20;;;6.80;99.90;;;;;;5005882;28;20248;-80
2022/01/05 12:01:17;;;;;;;20.07;4.33;;;6.80;99.90;;;;;;5016256;28;20210;-80
2022/01/05 12:04:05;;;;;;;18.93;3.03;;;6.80;99.90;;;;;;5005135;28;20241;-82
2022/01/05 12:06:44;;;;;;;18.37;3.83;;;6.90;99.90;;;;;;5013441;28;20601;-80
2022/01/05 12:09:28;;;;;;;20.27;3.07;;;6.90;99.90;;;;;;5013480;28;20220;-81
2022/01/05 12:12:03;;;;;;;20.10;4.23;;;6.90;99.90;;;;;;5019768;28;20571;-81
2022/01/05 12:14:30;;;;;;;17.57;3.70;;;6.90;99.90;;;;;;4993004;28;20306;-81
2022/01/05 12:17:06;;;;;;;25.33;3.77;;;6.90;99.90;;;;;;5011563;28;20241;-80
2022/01/05 12:19:46;;;;;;;17.17;2.67;;;6.90;99.90;;;;;;5007206;28;20230;-82
2022/01/05 12:22:26;;;;;;;23.93;3.03;;;6.80;99.90;;;;;;5011649;28;20287;-81
2022/01/05 12:25:03;;;;;;;21.13;3.53;;;6.80;99.90;;;;;;5013194;28;20207;-81
2022/01/05 12:27:35;;;;;;;18.97;3.33;;;6.80;99.90;;;;;;5026425;28;20213;-82
2022/01/05 12:30:18;;;;;;;19.87;3.77;;;6.80;99.90;;;;;;5020263;28;20563;-81
2022/01/05 12:32:47;;;;;;;18.03;3.80;;;6.80;99.90;;;;;;5010564;28;20607;-80
2022/01/05 12:35:23;;;;;;;19.00;3.20;;;6.80;99.90;;;;;;5014081;28;20212;-80
2022/01/05 12:37:55;;;;;;;15.77;2.77;;;6.90;99.90;;;;;;5008098;28;20211;-81
2022/01/05 12:40:30;;;;;;;13.93;3.97;;;7.00;99.90;;;;;;5005510;28;20235;-82
2022/01/05 12:43:06;;;;;;;14.57;2.13;;;7.00;99.90;;;;;;5006553;28;20232;-80
2022/01/05 12:45:52;;;;;;;20.30;2.87;;;7.10;99.90;;;;;;5014780;28;20217;-81
2022/01/05 12:48:33;;;;;;;17.80;3.23;;;7.10;99.90;;;;;;5028308;28;20226;-80
2022/01/05 12:51:18;;;;;;;12.70;2.60;;;7.10;99.90;;;;;;5022473;28;20228;-81
2022/01/05 12:54:06;;;;;;;21.03;3.47;;;7.10;99.90;;;;;;5014245;28;20515;-81
2022/01/05 12:56:36;;;;;;;20.77;3.23;;;7.10;99.90;;;;;;5025226;28;20235;-80
2022/01/05 12:59:05;;;;;;;17.13;3.57;;;7.10;99.90;;;;;;5047779;28;20536;-80
2022/01/05 13:01:33;;;;;;;23.70;3.93;;;7.20;99.90;;;;;;5023474;28;20635;-82
2022/01/05 13:04:05;;;;;;;19.87;3.33;;;7.20;99.90;;;;;;5031507;28;20230;-81